Time;durP1;ratioP1;P1;durP2;ratioP2;P2;SDS_P1;SDS_P2;PMS_P1;PMS_P2;Temp;Humidity;BMP_temperature;BMP_pressure;BME280_temperature;BME280_humidity;BME280_pressure;Samples;Min_cycle;Max_cycle;Signal;HPM_P1;HPM_P2
2023/01/20 00:01:27;;;;;;;13.35;7.38;;;-3.40;99.90;;;;;;4946039;29;20042;-77
2023/01/20 00:03:56;;;;;;;11.02;8.10;;;-3.30;99.90;;;;;;4924348;28;20040;-77
2023/01/20 00:06:26;;;;;;;16.83;7.03;;;-3.30;99.90;;;;;;4926271;29;20039;-77
2023/01/20 00:08:57;;;;;;;;;;;-3.30;99.90;;;;;;4942351;29;20043;-77
2023/01/20 00:11:25;;;;;;;10.75;8.75;;;-3.20;99.90;;;;;;4931218;29;20251;-77
2023/01/20 00:13:54;;;;;;;11.82;7.50;;;-3.20;99.90;;;;;;4921848;29;20065;-77
2023/01/20 00:16:24;;;;;;;10.30;7.30;;;-3.10;99.90;;;;;;4928399;29;20054;-77
2023/01/20 00:18:52;;;;;;;9.68;6.50;;;-3.10;99.90;;;;;;4942839;29;20080;-77
2023/01/20 00:21:20;;;;;;;11.02;6.35;;;-3.10;99.90;;;;;;4939900;29;20432;-78
2023/01/20 00:23:48;;;;;;;12.23;8.52;;;-3.10;99.90;;;;;;4945420;28;20054;-77
2023/01/20 00:26:18;;;;;;;8.50;7.55;;;-3.10;99.90;;;;;;4945828;29;20647;-77
2023/01/20 00:28:47;;;;;;;10.40;6.55;;;-3.00;99.90;;;;;;4933728;29;20059;-77
2023/01/20 00:31:16;;;;;;;11.80;8.07;;;-3.10;99.90;;;;;;4928753;29;20067;-77
2023/01/20 00:33:46;;;;;;;9.10;6.90;;;-3.10;99.90;;;;;;4928672;29;20051;-77
2023/01/20 00:36:15;;;;;;;8.85;6.90;;;-3.00;99.90;;;;;;4945405;29;20047;-78
2023/01/20 00:38:42;;;;;;;13.15;8.52;;;-3.00;99.90;;;;;;4928257;29;20074;-77
2023/01/20 00:41:11;;;;;;;10.38;7.65;;;-3.00;99.90;;;;;;4944700;28;20051;-77
2023/01/20 00:43:39;;;;;;;7.18;5.72;;;-3.00;99.90;;;;;;4928718;29;20220;-77
2023/01/20 00:46:08;;;;;;;8.23;6.93;;;-3.00;99.90;;;;;;4945778;29;20062;-77
2023/01/20 00:48:37;;;;;;;9.30;6.47;;;-3.00;99.90;;;;;;4945149;28;20051;-77
2023/01/20 00:51:05;;;;;;;10.55;7.85;;;-3.00;99.90;;;;;;4947379;28;20055;-78
2023/01/20 00:53:33;;;;;;;10.68;6.45;;;-3.00;99.90;;;;;;4929201;29;20055;-77
2023/01/20 00:56:02;;;;;;;8.90;6.30;;;-3.00;99.90;;;;;;4912907;29;20051;-78
2023/01/20 00:58:30;;;;;;;7.10;6.38;;;-3.00;99.90;;;;;;4913792;29;20092;-77
2023/01/20 01:00:57;;;;;;;6.20;5.60;;;-3.00;99.90;;;;;;4913735;29;20250;-77
2023/01/20 01:03:29;;;;;;;9.70;5.82;;;-2.90;99.90;;;;;;4921100;29;20063;-77
2023/01/20 01:06:11;;;;;;;15.38;7.82;;;-3.00;99.90;;;;;;4929606;28;20301;-79
2023/01/20 01:08:39;;;;;;;5.53;5.03;;;-3.10;99.90;;;;;;4928991;29;20043;-77
2023/01/20 01:11:22;;;;;;;6.97;5.57;;;-3.20;99.90;;;;;;4884119;29;20055;-78
2023/01/20 01:13:50;;;;;;;7.88;6.22;;;-3.20;99.90;;;;;;4912388;29;20044;-78
2023/01/20 01:16:18;;;;;;;9.57;6.70;;;-3.30;99.90;;;;;;4929542;29;20461;-77
2023/01/20 01:18:45;;;;;;;8.52;6.82;;;-3.30;99.90;;;;;;4897333;29;20066;-77
2023/01/20 01:21:15;;;;;;;5.78;4.32;;;-3.30;99.90;;;;;;4930168;29;20047;-77
2023/01/20 01:23:44;;;;;;;6.13;5.45;;;-3.40;99.90;;;;;;4928155;29;20412;-77
2023/01/20 01:26:12;;;;;;;9.48;6.15;;;-3.40;99.90;;;;;;4913180;29;20056;-77
2023/01/20 01:28:40;;;;;;;6.63;5.22;;;-3.40;99.90;;;;;;4929626;29;20052;-77
2023/01/20 01:31:08;;;;;;;6.95;5.70;;;-3.40;99.90;;;;;;4929341;29;20102;-77
2023/01/20 01:33:36;;;;;;;13.13;7.78;;;-3.50;99.90;;;;;;4928879;29;20047;-77
2023/01/20 01:36:04;;;;;;;9.98;7.45;;;-3.40;99.90;;;;;;4929825;29;20063;-77
2023/01/20 01:38:32;;;;;;;13.07;8.55;;;-3.50;99.90;;;;;;4912147;29;20051;-77
2023/01/20 01:41:00;;;;;;;9.70;6.43;;;-3.50;99.90;;;;;;4929031;29;20720;-77
2023/01/20 01:43:35;;;;;;;8.27;7.45;;;-3.60;99.90;;;;;;4930330;29;20039;-77
2023/01/20 01:46:04;;;;;;;7.47;6.43;;;-3.80;99.90;;;;;;4929175;29;20043;-77
2023/01/20 01:48:59;;;;;;;11.90;6.13;;;-3.80;99.90;;;;;;4929094;29;20052;-77
2023/01/20 01:51:36;;;;;;;10.55;6.28;;;-3.80;99.90;;;;;;4907801;29;20056;-77
2023/01/20 01:54:15;;;;;;;7.03;5.40;;;-3.90;99.90;;;;;;4918705;29;20062;-77
2023/01/20 01:56:45;;;;;;;6.97;5.65;;;-3.80;99.90;;;;;;4928869;29;20063;-77
2023/01/20 01:59:14;;;;;;;6.95;6.50;;;-3.80;99.90;;;;;;4929829;29;20055;-77
2023/01/20 02:01:48;;;;;;;8.55;6.50;;;-3.90;99.90;;;;;;4929881;29;20044;-77
2023/01/20 02:04:20;;;;;;;10.25;5.45;;;-4.10;99.90;;;;;;4927695;29;20050;-77
2023/01/20 02:06:52;;;;;;;7.03;5.88;;;-4.20;99.90;;;;;;4929589;29;20052;-77
2023/01/20 02:09:20;;;;;;;5.65;5.20;;;-4.20;99.90;;;;;;4926014;29;20050;-76
2023/01/20 02:11:51;;;;;;;6.80;5.47;;;-4.20;99.90;;;;;;4920686;29;20066;-77
2023/01/20 02:14:25;;;;;;;6.60;6.00;;;-4.20;99.90;;;;;;4912168;29;20048;-77
2023/01/20 02:17:15;;;;;;;5.75;5.15;;;-4.20;99.90;;;;;;4915333;29;20055;-77
2023/01/20 02:19:51;;;;;;;8.75;5.72;;;-4.30;99.90;;;;;;4926188;29;20063;-77
2023/01/20 02:22:45;;;;;;;8.13;6.15;;;-4.30;99.90;;;;;;4904544;29;20064;-77
2023/01/20 02:25:33;;;;;;;5.65;5.15;;;-4.40;99.90;;;;;;4927521;28;20060;-77
2023/01/20 02:28:15;;;;;;;6.25;5.65;;;-4.50;99.90;;;;;;4928856;29;20056;-77
2023/01/20 02:31:18;;;;;;;8.23;5.80;;;-4.60;99.90;;;;;;4916439;29;20043;-77
2023/01/20 02:34:09;;;;;;;6.82;4.30;;;-4.70;99.90;;;;;;4924516;29;20048;-77
2023/01/20 02:36:46;;;;;;;4.85;4.45;;;-4.80;99.90;;;;;;4915332;29;20402;-77
2023/01/20 02:39:25;;;;;;;4.20;3.67;;;-4.90;99.90;;;;;;4927385;29;20567;-77
2023/01/20 02:42:00;;;;;;;6.63;5.22;;;-4.90;99.90;;;;;;4911001;29;20052;-77
2023/01/20 02:44:42;;;;;;;4.28;3.95;;;-4.80;99.90;;;;;;4928823;28;20052;-77
2023/01/20 02:47:28;;;;;;;4.80;4.40;;;-4.80;99.90;;;;;;4928713;29;20074;-77
2023/01/20 02:50:06;;;;;;;6.40;4.90;;;-4.70;99.90;;;;;;4927860;29;20051;-77
2023/01/20 02:52:39;;;;;;;4.38;3.97;;;-4.70;99.90;;;;;;4922389;29;20058;-77
2023/01/20 02:55:11;;;;;;;5.72;4.72;;;-4.70;99.90;;;;;;4946253;29;20067;-77
2023/01/20 02:57:55;;;;;;;10.00;5.28;;;-4.80;99.90;;;;;;4930154;29;20047;-77
2023/01/20 03:00:32;;;;;;;5.80;4.72;;;-4.70;99.90;;;;;;4946807;29;20047;-77
2023/01/20 03:03:06;;;;;;;4.65;4.07;;;-4.80;99.90;;;;;;4947423;29;20273;-76
2023/01/20 03:05:38;;;;;;;5.32;4.82;;;-4.80;99.90;;;;;;4947489;28;20051;-77
2023/01/20 03:08:09;;;;;;;5.68;5.10;;;-4.70;99.90;;;;;;4932573;29;20717;-77
2023/01/20 03:10:38;;;;;;;4.15;3.75;;;-4.70;99.90;;;;;;4929369;29;20062;-77
2023/01/20 03:13:20;;;;;;;5.82;5.00;;;-4.80;99.90;;;;;;4929911;28;20039;-77
2023/01/20 03:16:19;;;;;;;4.50;4.10;;;-5.00;99.90;;;;;;4945869;29;20063;-77
2023/01/20 03:18:48;;;;;;;5.43;4.05;;;-5.10;99.90;;;;;;4931046;29;20066;-77
2023/01/20 03:21:16;;;;;;;4.30;3.88;;;-5.10;99.90;;;;;;4929436;28;20443;-77
2023/01/20 03:23:50;;;;;;;5.03;3.78;;;-5.10;99.90;;;;;;4945719;28;20420;-76
2023/01/20 03:26:21;;;;;;;9.05;4.15;;;-5.10;99.90;;;;;;4946432;29;20058;-77
2023/01/20 03:28:50;;;;;;;4.15;3.85;;;-5.10;99.90;;;;;;4947051;29;20051;-77
2023/01/20 03:32:03;;;;;;;7.05;4.78;;;-5.10;99.90;;;;;;4928865;29;20055;-77
2023/01/20 03:34:34;;;;;;;4.10;3.63;;;-5.00;99.90;;;;;;4877211;29;20059;-77
2023/01/20 03:37:04;;;;;;;5.05;4.30;;;-5.00;99.90;;;;;;4918340;29;20081;-77
2023/01/20 03:39:32;;;;;;;4.40;4.10;;;-4.90;99.90;;;;;;4935604;28;20051;-77
2023/01/20 03:42:12;;;;;;;5.13;4.63;;;-4.90;99.90;;;;;;4928252;29;20070;-77
2023/01/20 03:44:50;;;;;;;5.55;4.22;;;-4.80;99.90;;;;;;4946130;28;20047;-77
2023/01/20 03:47:55;;;;;;;3.90;3.55;;;-4.80;99.90;;;;;;4946721;29;20055;-78
2023/01/20 03:51:08;;;;;;;6.60;4.32;;;-4.80;99.90;;;;;;4916840;29;20048;-79
2023/01/20 03:53:47;;;;;;;4.63;4.10;;;-4.90;99.90;;;;;;4867063;29;20694;-78
2023/01/20 03:56:25;;;;;;;5.93;5.22;;;-4.90;99.90;;;;;;4936858;28;20759;-78
2023/01/20 03:58:53;;;;;;;6.30;5.68;;;-5.00;99.90;;;;;;4930049;29;20088;-77
2023/01/20 04:01:32;;;;;;;4.55;4.15;;;-5.00;99.90;;;;;;4945828;29;20781;-78
2023/01/20 04:04:01;;;;;;;4.25;3.85;;;-5.00;99.90;;;;;;4946989;28;20055;-77
2023/01/20 04:06:30;;;;;;;6.68;4.60;;;-5.00;99.90;;;;;;4947797;28;20074;-77
2023/01/20 04:09:03;;;;;;;4.78;4.40;;;-5.10;99.90;;;;;;4927797;29;20593;-77
2023/01/20 04:11:32;;;;;;;3.92;3.50;;;-5.10;99.90;;;;;;4946136;29;20055;-77
2023/01/20 04:13:59;;;;;;;4.75;4.32;;;-5.20;99.90;;;;;;4929306;29;20051;-77
2023/01/20 04:16:27;;;;;;;7.25;4.95;;;-5.10;99.90;;;;;;4945744;29;20043;-77
2023/01/20 04:18:55;;;;;;;3.60;3.35;;;-5.00;99.90;;;;;;4946481;29;20059;-77
2023/01/20 04:21:41;;;;;;;10.40;5.15;;;-4.80;99.90;;;;;;4946008;28;20062;-77
2023/01/20 04:24:19;;;;;;;4.05;3.65;;;-4.70;99.90;;;;;;4927317;28;20054;-77
2023/01/20 04:26:46;;;;;;;6.03;4.93;;;-4.60;99.90;;;;;;4929164;29;20062;-77
2023/01/20 04:29:14;;;;;;;3.45;3.15;;;-4.50;99.90;;;;;;4945911;29;20080;-77
2023/01/20 04:31:42;;;;;;;6.10;4.35;;;-4.40;99.90;;;;;;4946177;28;20203;-77
2023/01/20 04:34:16;;;;;;;4.43;3.92;;;-4.30;99.90;;;;;;4945886;29;20063;-77
2023/01/20 04:36:43;;;;;;;5.15;3.35;;;-4.20;99.90;;;;;;4913774;29;20043;-78
2023/01/20 04:39:11;;;;;;;2.95;2.85;;;-4.10;99.90;;;;;;4909608;29;20055;-77
2023/01/20 04:41:39;;;;;;;4.90;3.38;;;-4.00;99.90;;;;;;4941381;29;20055;-77
2023/01/20 04:44:06;;;;;;;5.25;3.67;;;-4.00;99.90;;;;;;4945842;29;20273;-77
2023/01/20 04:46:35;;;;;;;4.03;3.65;;;-3.90;99.90;;;;;;4911614;29;20052;-77
2023/01/20 04:49:03;;;;;;;4.65;4.25;;;-3.90;99.90;;;;;;4939972;29;20047;-77
2023/01/20 04:51:32;;;;;;;3.55;3.25;;;-3.70;99.90;;;;;;4950802;28;20044;-77
2023/01/20 04:58:06;;;;;;;4.40;3.67;;;-3.70;99.90;;;;;;4933836;29;20052;-77
2023/01/20 05:00:33;;;;;;;4.30;3.67;;;-3.70;99.90;;;;;;4934198;29;20044;-77
2023/01/20 05:03:01;;;;;;;8.70;4.10;;;-3.70;99.90;;;;;;4935310;29;20056;-76
2023/01/20 05:05:29;;;;;;;4.07;3.38;;;-3.60;99.90;;;;;;4933511;29;20048;-77
2023/01/20 05:07:58;;;;;;;3.45;3.25;;;-3.60;99.90;;;;;;4934490;29;20047;-77
2023/01/20 05:10:26;;;;;;;5.53;3.45;;;-3.60;99.90;;;;;;4934384;29;20044;-77
2023/01/20 05:12:53;;;;;;;6.30;5.80;;;-3.60;99.90;;;;;;4917272;29;20044;-77
2023/01/20 05:15:21;;;;;;;3.40;3.10;;;-3.60;99.90;;;;;;4934120;29;20054;-77
2023/01/20 05:17:48;;;;;;;4.07;3.75;;;-3.70;99.90;;;;;;4933521;29;20044;-77
2023/01/20 05:20:19;;;;;;;5.45;3.47;;;-3.70;99.90;;;;;;4933644;29;20047;-77
2023/01/20 05:22:46;;;;;;;3.63;3.28;;;-3.70;99.90;;;;;;4934512;29;20044;-77
2023/01/20 05:25:16;;;;;;;6.22;4.20;;;-3.70;99.90;;;;;;4917469;29;20392;-77
2023/01/20 05:27:44;;;;;;;19.25;5.35;;;-3.80;99.90;;;;;;4933560;29;20063;-77
2023/01/20 05:30:12;;;;;;;6.57;4.78;;;-3.90;99.90;;;;;;4933617;29;20054;-77
2023/01/20 05:32:40;;;;;;;5.95;4.78;;;-4.00;99.90;;;;;;4933455;29;20035;-77
2023/01/20 05:35:08;;;;;;;6.82;4.03;;;-4.00;99.90;;;;;;4917064;29;20043;-77
2023/01/20 05:37:36;;;;;;;5.05;4.47;;;-4.10;99.90;;;;;;4935853;29;20044;-77
2023/01/20 05:40:04;;;;;;;3.67;3.38;;;-4.20;99.90;;;;;;4936464;29;20036;-77
2023/01/20 05:42:34;;;;;;;7.10;4.40;;;-4.20;99.90;;;;;;4937795;29;20048;-77
2023/01/20 05:45:04;;;;;;;5.88;4.65;;;-4.20;99.90;;;;;;4937452;29;20070;-77
2023/01/20 05:47:31;;;;;;;7.57;4.75;;;-4.30;99.90;;;;;;4939234;28;20049;-77
2023/01/20 05:49:59;;;;;;;6.60;5.55;;;-4.40;99.90;;;;;;4956655;28;20392;-77
2023/01/20 05:52:26;;;;;;;5.88;5.28;;;-4.50;99.90;;;;;;4955681;28;20159;-77
2023/01/20 05:54:54;;;;;;;5.15;4.30;;;-4.50;99.90;;;;;;4956385;28;20057;-77
2023/01/20 05:57:25;;;;;;;4.55;4.10;;;-4.70;99.90;;;;;;4939800;29;20211;-77
2023/01/20 05:59:54;;;;;;;9.85;4.80;;;-4.80;99.90;;;;;;4939384;28;20125;-77
2023/01/20 06:02:22;;;;;;;5.28;4.25;;;-4.90;99.90;;;;;;4936379;28;20044;-77
2023/01/20 06:04:49;;;;;;;5.40;5.00;;;-4.90;99.90;;;;;;4955926;28;20271;-77
2023/01/20 06:07:18;;;;;;;4.88;4.47;;;-4.80;99.90;;;;;;4956660;28;20035;-77
2023/01/20 06:09:45;;;;;;;5.03;4.63;;;-4.80;99.90;;;;;;4955011;28;20035;-77
2023/01/20 06:12:13;;;;;;;6.97;5.43;;;-4.70;99.90;;;;;;4956338;28;20040;-77
2023/01/20 06:14:40;;;;;;;5.97;5.20;;;-4.80;99.90;;;;;;4954530;28;20049;-77
2023/01/20 06:17:09;;;;;;;9.43;6.20;;;-4.70;99.90;;;;;;4956334;28;20253;-77
2023/01/20 06:19:37;;;;;;;6.00;5.45;;;-4.70;99.90;;;;;;4955599;28;20043;-77
2023/01/20 06:22:06;;;;;;;11.68;4.93;;;-4.80;99.90;;;;;;4956023;28;20061;-78
2023/01/20 06:24:34;;;;;;;6.65;4.72;;;-4.70;99.90;;;;;;4955362;28;20292;-77
2023/01/20 06:27:01;;;;;;;5.18;4.78;;;-4.80;99.90;;;;;;4955648;28;20044;-77
2023/01/20 06:29:30;;;;;;;6.38;4.90;;;-4.80;99.90;;;;;;4952526;28;20150;-78
2023/01/20 06:31:57;;;;;;;5.65;5.15;;;-4.90;99.90;;;;;;4955482;28;20132;-77
2023/01/20 06:34:27;;;;;;;7.15;5.22;;;-4.90;99.90;;;;;;4946683;28;20047;-77
2023/01/20 06:36:55;;;;;;;6.90;6.03;;;-5.00;99.90;;;;;;4953490;28;20039;-77
2023/01/20 06:39:23;;;;;;;12.70;4.72;;;-5.10;99.90;;;;;;4946749;28;20302;-77
2023/01/20 06:41:51;;;;;;;8.65;5.32;;;-5.10;99.90;;;;;;4925640;28;20055;-76
2023/01/20 06:44:19;;;;;;;9.60;6.22;;;-5.00;99.90;;;;;;4912133;29;20067;-77
2023/01/20 06:46:50;;;;;;;6.78;5.05;;;-5.00;99.90;;;;;;4908924;29;20170;-77
2023/01/20 06:49:18;;;;;;;5.90;5.32;;;-4.90;99.90;;;;;;4918965;29;20047;-77
2023/01/20 06:51:47;;;;;;;8.57;5.72;;;-4.90;99.90;;;;;;4915201;28;20058;-77
2023/01/20 06:54:17;;;;;;;7.00;6.35;;;-5.00;99.90;;;;;;4930069;29;20051;-77
2023/01/20 06:56:45;;;;;;;7.25;5.82;;;-4.90;99.90;;;;;;4911629;29;20052;-77
2023/01/20 06:59:13;;;;;;;5.63;4.97;;;-4.90;99.90;;;;;;4941699;29;20404;-77
2023/01/20 07:01:41;;;;;;;8.93;5.95;;;-5.00;99.90;;;;;;4929679;29;20047;-76
2023/01/20 07:04:12;;;;;;;6.15;5.13;;;-5.00;99.90;;;;;;4946341;28;20098;-77
2023/01/20 07:06:41;;;;;;;8.55;6.57;;;-5.10;99.90;;;;;;4930013;29;20042;-77
2023/01/20 07:09:10;;;;;;;7.95;5.78;;;-5.10;99.90;;;;;;4944007;29;20050;-77
2023/01/20 07:11:40;;;;;;;9.98;5.68;;;-5.10;99.90;;;;;;4944432;28;20494;-77
2023/01/20 07:14:07;;;;;;;9.93;6.20;;;-5.00;99.90;;;;;;4946312;29;20039;-77
2023/01/20 07:16:35;;;;;;;7.25;6.35;;;-5.10;99.90;;;;;;4946487;29;20047;-75
2023/01/20 07:19:03;;;;;;;6.95;4.47;;;-5.00;99.90;;;;;;4946847;28;20047;-75
2023/01/20 07:21:31;;;;;;;6.20;5.50;;;-5.00;99.90;;;;;;4946513;29;20073;-75
2023/01/20 07:24:00;;;;;;;9.27;5.25;;;-4.90;99.90;;;;;;4945848;28;20480;-75
2023/01/20 07:26:29;;;;;;;5.75;5.25;;;-4.80;99.90;;;;;;4929407;29;20054;-75
2023/01/20 07:28:57;;;;;;;6.95;6.25;;;-4.70;99.90;;;;;;4946240;29;20043;-75
2023/01/20 07:31:27;;;;;;;5.88;5.32;;;-4.60;99.90;;;;;;4926984;28;20043;-76
2023/01/20 07:33:55;;;;;;;9.85;6.80;;;-4.50;99.90;;;;;;4921222;29;20051;-75
2023/01/20 07:36:24;;;;;;;6.90;6.30;;;-4.40;99.90;;;;;;4928048;29;20039;-76
2023/01/20 07:38:52;;;;;;;5.85;4.88;;;-4.30;99.90;;;;;;4939333;29;21219;-75
2023/01/20 07:41:21;;;;;;;9.70;5.15;;;-4.10;99.90;;;;;;4935874;29;20619;-75
2023/01/20 07:43:50;;;;;;;6.60;4.40;;;-4.00;99.90;;;;;;4944271;28;20059;-75
2023/01/20 07:46:19;;;;;;;5.75;4.72;;;-3.80;99.90;;;;;;4929489;29;20057;-75
2023/01/20 07:48:47;;;;;;;7.63;5.68;;;-3.80;99.90;;;;;;4947152;29;20055;-77
2023/01/20 07:51:15;;;;;;;5.85;5.00;;;-3.70;99.90;;;;;;4930430;29;20047;-78
2023/01/20 07:53:49;;;;;;;5.97;5.45;;;-3.60;99.90;;;;;;4929279;29;20074;-77
2023/01/20 07:56:21;;;;;;;6.03;4.78;;;-3.60;99.90;;;;;;4929359;29;20083;-77
2023/01/20 07:58:50;;;;;;;7.32;6.57;;;-3.60;99.90;;;;;;4930058;29;20123;-77
2023/01/20 08:01:24;;;;;;;6.00;5.38;;;-3.60;99.90;;;;;;4929908;29;20448;-77
2023/01/20 08:03:52;;;;;;;11.07;5.90;;;-3.60;99.90;;;;;;4930100;29;20059;-77
2023/01/20 08:06:22;;;;;;;8.23;6.35;;;-3.70;99.90;;;;;;4926028;29;20062;-77
2023/01/20 08:08:51;;;;;;;10.10;4.90;;;-3.70;99.90;;;;;;4895936;29;20055;-77
2023/01/20 08:11:22;;;;;;;9.07;7.70;;;-3.60;99.90;;;;;;4912670;29;20055;-77
2023/01/20 08:13:50;;;;;;;8.15;5.40;;;-3.50;99.90;;;;;;4913029;29;20052;-77
2023/01/20 08:16:17;;;;;;;6.47;5.65;;;-3.50;99.90;;;;;;4919209;29;20055;-77
2023/01/20 08:18:45;;;;;;;7.65;6.07;;;-3.40;99.90;;;;;;4927630;29;20055;-77
2023/01/20 08:21:29;;;;;;;7.20;6.63;;;-3.40;99.90;;;;;;4905742;29;20056;-77
2023/01/20 08:23:58;;;;;;;6.20;5.18;;;-3.30;99.90;;;;;;4929053;29;20048;-77
2023/01/20 08:26:29;;;;;;;10.23;8.88;;;-3.30;99.90;;;;;;4927550;29;20775;-77
2023/01/20 08:29:06;;;;;;;12.50;8.02;;;-3.30;99.90;;;;;;4922261;29;20058;-77
2023/01/20 08:31:35;;;;;;;6.60;6.00;;;-3.30;99.90;;;;;;4918011;29;20087;-77
2023/01/20 08:34:03;;;;;;;8.30;6.43;;;-3.30;99.90;;;;;;4915313;29;20052;-77
2023/01/20 08:36:34;;;;;;;8.55;6.93;;;-3.30;99.90;;;;;;4926887;29;20040;-77
2023/01/20 08:39:06;;;;;;;9.13;6.68;;;-3.30;99.90;;;;;;4885530;29;20060;-77
2023/01/20 08:41:36;;;;;;;9.23;8.32;;;-3.20;99.90;;;;;;4914869;29;20048;-77
2023/01/20 08:44:06;;;;;;;11.27;8.20;;;-3.10;99.90;;;;;;4914857;29;20048;-78
2023/01/20 08:46:34;;;;;;;7.20;6.60;;;-3.00;99.90;;;;;;4914623;29;20363;-77
2023/01/20 08:49:04;;;;;;;6.88;6.25;;;-3.00;99.90;;;;;;4895271;29;20058;-77
2023/01/20 08:51:32;;;;;;;9.05;6.13;;;-2.90;99.90;;;;;;4910515;29;20056;-77
2023/01/20 08:54:00;;;;;;;9.80;7.22;;;-2.80;99.90;;;;;;4905606;29;20401;-77
2023/01/20 08:56:28;;;;;;;15.20;6.03;;;-2.70;99.90;;;;;;4918705;29;20043;-76
2023/01/20 08:58:57;;;;;;;7.65;5.30;;;-2.60;99.90;;;;;;4926714;29;20052;-77
2023/01/20 09:01:28;;;;;;;6.32;5.70;;;-2.60;99.90;;;;;;4912031;29;20077;-77
2023/01/20 09:03:57;;;;;;;7.97;7.17;;;-2.50;99.90;;;;;;4908630;29;20213;-77
2023/01/20 09:06:48;;;;;;;6.78;6.10;;;-2.50;99.90;;;;;;4896960;29;20043;-76
2023/01/20 09:09:18;;;;;;;7.45;6.78;;;-2.50;99.90;;;;;;4919137;29;20040;-77
2023/01/20 09:11:50;;;;;;;10.07;7.95;;;-2.40;99.90;;;;;;4926983;29;20111;-77
2023/01/20 09:14:20;;;;;;;7.05;6.35;;;-2.40;99.90;;;;;;4922888;29;20056;-77
2023/01/20 09:16:48;;;;;;;7.03;6.32;;;-2.30;99.90;;;;;;4910164;29;20195;-77
2023/01/20 09:19:16;;;;;;;7.63;6.03;;;-2.30;99.90;;;;;;4920200;29;20479;-77
2023/01/20 09:21:50;;;;;;;7.60;6.78;;;-2.30;99.90;;;;;;4902258;29;20281;-77
2023/01/20 09:24:18;;;;;;;6.85;6.20;;;-2.20;99.90;;;;;;4920203;29;20052;-77
2023/01/20 09:26:47;;;;;;;7.85;7.13;;;-2.20;99.90;;;;;;4928809;29;20043;-78
2023/01/20 09:29:17;;;;;;;6.80;6.18;;;-2.10;99.90;;;;;;4911897;29;20047;-77
2023/01/20 09:31:58;;;;;;;9.30;7.22;;;-2.00;99.90;;;;;;4920974;29;20040;-77
2023/01/20 09:34:28;;;;;;;12.90;8.80;;;-2.00;99.90;;;;;;4912716;29;20062;-78
2023/01/20 09:43:52;;;;;;;10.10;7.30;;;-1.90;99.90;;;;;;4930073;29;20448;-77
2023/01/20 09:46:07;;;;;;;10.43;6.88;;;-1.70;99.90;;;;;;4918633;29;20048;-77
2023/01/20 09:54:40;;;;;;;8.77;6.15;;;-1.70;99.90;;;;;;4924948;29;20066;-77
2023/01/20 09:57:12;;;;;;;8.65;7.72;;;-1.70;99.90;;;;;;4901782;29;20048;-77
2023/01/20 09:59:48;;;;;;;9.45;6.60;;;-1.60;99.90;;;;;;4905154;29;20064;-78
2023/01/20 10:02:25;;;;;;;8.73;6.03;;;-1.50;99.90;;;;;;4897329;29;20060;-78
2023/01/20 10:04:59;;;;;;;10.23;7.32;;;-1.50;99.90;;;;;;4914769;29;20060;-78
2023/01/20 10:07:57;;;;;;;15.02;7.15;;;-1.40;99.90;;;;;;4923094;29;20051;-78
2023/01/20 10:10:29;;;;;;;11.32;7.15;;;-1.20;99.90;;;;;;4922462;29;20051;-77
2023/01/20 10:13:14;;;;;;;9.70;8.55;;;-1.20;99.90;;;;;;4898485;29;20048;-77
2023/01/20 10:15:47;;;;;;;9.32;7.90;;;-1.30;99.90;;;;;;4925392;29;20067;-77
2023/01/20 10:18:24;;;;;;;11.65;7.18;;;-1.30;99.90;;;;;;4912556;29;20058;-78
2023/01/20 10:21:08;;;;;;;10.90;7.65;;;-1.30;99.90;;;;;;4927940;28;20052;-78
2023/01/20 10:23:53;;;;;;;8.05;6.50;;;-1.20;99.90;;;;;;4927610;29;20056;-78
2023/01/20 10:26:37;;;;;;;8.70;7.65;;;-1.10;99.90;;;;;;4918390;29;20058;-78
2023/01/20 10:29:08;;;;;;;12.15;8.00;;;-1.00;99.90;;;;;;4928237;29;20047;-78
2023/01/20 10:31:48;;;;;;;11.20;6.72;;;-0.90;99.90;;;;;;4928336;29;20040;-79
2023/01/20 10:34:19;;;;;;;7.70;6.88;;;-0.80;99.90;;;;;;4930355;29;20052;-78
2023/01/20 10:36:55;;;;;;;8.25;6.45;;;-0.70;99.90;;;;;;4921165;29;20052;-77
2023/01/20 10:39:29;;;;;;;10.38;6.15;;;-0.80;99.90;;;;;;4909119;28;20804;-78
2023/01/20 10:42:09;;;;;;;8.80;7.35;;;-0.80;99.90;;;;;;4928237;29;20047;-78
2023/01/20 10:44:38;;;;;;;9.65;7.32;;;-0.80;99.90;;;;;;4906022;29;20052;-78
2023/01/20 10:47:24;;;;;;;8.63;7.25;;;-0.80;99.90;;;;;;4926433;29;20082;-78
2023/01/20 10:50:16;;;;;;;8.65;6.85;;;-0.70;99.90;;;;;;4909033;29;20181;-78
2023/01/20 10:53:23;;;;;;;7.97;6.85;;;-0.70;99.90;;;;;;4914495;29;20051;-78
2023/01/20 10:56:03;;;;;;;7.10;6.35;;;-0.70;99.90;;;;;;4928598;29;20051;-78
2023/01/20 10:58:36;;;;;;;7.53;6.40;;;-0.70;99.90;;;;;;4924891;29;20048;-78
2023/01/20 11:01:08;;;;;;;8.60;7.75;;;-0.70;99.90;;;;;;4913375;29;20044;-78
2023/01/20 11:03:40;;;;;;;8.48;6.88;;;-0.60;99.90;;;;;;4923900;29;20059;-78
2023/01/20 11:06:24;;;;;;;8.88;7.70;;;-0.70;99.90;;;;;;4921867;29;20059;-78
2023/01/20 11:09:00;;;;;;;9.43;8.15;;;-0.70;99.90;;;;;;4921606;29;20043;-78
2023/01/20 11:11:30;;;;;;;8.07;7.43;;;-0.70;99.90;;;;;;4903118;29;20060;-78
2023/01/20 11:14:02;;;;;;;11.07;6.90;;;-0.70;99.90;;;;;;4895716;29;20048;-78
2023/01/20 11:16:33;;;;;;;6.72;5.60;;;-0.60;99.90;;;;;;4920475;29;20052;-78
2023/01/20 11:19:06;;;;;;;7.40;5.85;;;-0.60;99.90;;;;;;4914284;29;20067;-79
2023/01/20 11:21:35;;;;;;;6.47;5.88;;;-0.50;99.90;;;;;;4916604;29;20055;-79
2023/01/20 11:24:31;;;;;;;12.68;6.50;;;-0.50;99.90;;;;;;4921849;29;20051;-79
2023/01/20 11:27:11;;;;;;;10.57;7.22;;;-0.50;99.90;;;;;;4910563;29;20059;-80
2023/01/20 11:29:43;;;;;;;10.70;6.78;;;-0.30;99.90;;;;;;4930216;29;20055;-79
2023/01/20 11:32:27;;;;;;;8.00;7.28;;;-0.20;99.90;;;;;;4905155;29;20044;-79
2023/01/20 11:34:56;;;;;;;10.20;7.38;;;-0.10;99.90;;;;;;4926572;29;20055;-79
2023/01/20 11:37:26;;;;;;;11.40;6.30;;;0.00;99.90;;;;;;4923888;29;20395;-79
2023/01/20 11:39:54;;;;;;;5.57;4.93;;;0.10;99.90;;;;;;4913489;29;20044;-79
2023/01/20 11:42:41;;;;;;;7.38;6.68;;;0.10;99.90;;;;;;4898935;29;20358;-79
2023/01/20 11:45:33;;;;;;;7.63;6.72;;;0.10;99.90;;;;;;4929328;29;20050;-80
2023/01/20 11:48:14;;;;;;;;;;;0.20;99.90;;;;;;4935463;29;20048;-79
2023/01/20 11:50:49;;;;;;;5.63;4.53;;;0.20;99.90;;;;;;4935358;29;19923;-80
2023/01/20 11:58:02;;;;;;;6.82;5.15;;;0.00;99.90;;;;;;4916548;29;20042;-79
2023/01/20 12:00:40;;;;;;;7.75;5.60;;;-0.20;99.90;;;;;;4915167;29;20044;-80
2023/01/20 12:03:24;;;;;;;6.78;6.18;;;-0.10;99.90;;;;;;4915058;29;20070;-80
2023/01/20 12:06:03;;;;;;;5.82;5.07;;;-0.10;99.90;;;;;;4910398;29;20048;-80
2023/01/20 12:08:47;;;;;;;5.57;5.05;;;-0.20;99.90;;;;;;4932764;29;20051;-80
2023/01/20 12:11:58;;;;;;;6.57;5.20;;;0.00;99.90;;;;;;4933017;29;20055;-80
2023/01/20 12:14:36;;;;;;;6.05;5.45;;;0.00;99.90;;;;;;4871442;29;20048;-79
2023/01/20 12:17:39;;;;;;;5.55;4.65;;;-0.10;99.90;;;;;;4931866;29;20378;-80
2023/01/20 12:20:29;;;;;;;10.23;6.05;;;-0.20;99.90;;;;;;4929231;29;20043;-80
2023/01/20 12:23:20;;;;;;;7.57;5.60;;;-0.30;99.90;;;;;;4901842;29;20063;-80
2023/01/20 12:25:53;;;;;;;5.80;5.13;;;-0.50;99.90;;;;;;4929674;29;20071;-79
2023/01/20 12:28:37;;;;;;;5.70;5.05;;;-0.50;99.90;;;;;;4934310;29;20284;-80
2023/01/20 12:31:13;;;;;;;3.47;3.17;;;-0.50;99.90;;;;;;4932226;29;20047;-79
2023/01/20 12:33:47;;;;;;;5.90;4.43;;;-0.50;99.90;;;;;;4942764;28;20036;-80
2023/01/20 12:36:25;;;;;;;5.47;4.20;;;-0.40;99.90;;;;;;4952557;28;20036;-80
2023/01/20 12:39:16;;;;;;;6.78;6.05;;;-0.40;99.90;;;;;;4953839;28;20142;-80
2023/01/20 12:41:50;;;;;;;4.50;4.10;;;-0.40;99.90;;;;;;4948779;28;20050;-80
2023/01/20 12:44:53;;;;;;;6.15;5.47;;;-0.30;99.90;;;;;;4928261;28;20032;-80
2023/01/20 12:47:59;;;;;;;5.90;5.05;;;-0.40;99.90;;;;;;4954959;28;20043;-80
2023/01/20 12:50:42;;;;;;;5.82;4.93;;;-0.40;99.90;;;;;;4924670;29;20144;-80
2023/01/20 12:53:20;;;;;;;9.27;6.03;;;-0.40;99.90;;;;;;4945854;28;20035;-80
2023/01/20 12:56:12;;;;;;;7.20;6.03;;;-0.50;99.90;;;;;;4957020;28;20039;-80
2023/01/20 12:59:12;;;;;;;7.45;6.38;;;-0.40;99.90;;;;;;4942630;29;20046;-80
2023/01/20 13:01:43;;;;;;;6.85;6.25;;;-0.40;99.90;;;;;;4955226;28;20058;-80
2023/01/20 13:04:50;;;;;;;11.52;7.60;;;-0.40;99.90;;;;;;4917834;29;20038;-79
2023/01/20 13:07:51;;;;;;;5.60;5.10;;;-0.50;99.90;;;;;;4944595;28;20044;-80
2023/01/20 13:10:24;;;;;;;8.68;6.70;;;-0.50;99.90;;;;;;4942935;28;20043;-80
2023/01/20 13:13:11;;;;;;;6.63;5.22;;;-0.50;99.90;;;;;;4946987;28;20070;-80
2023/01/20 13:15:44;;;;;;;7.13;6.38;;;-0.50;99.90;;;;;;4919318;29;20060;-79
2023/01/20 13:18:23;;;;;;;9.02;6.10;;;-0.50;99.90;;;;;;4913320;29;20370;-79
2023/01/20 13:20:53;;;;;;;6.35;5.78;;;-0.60;99.90;;;;;;4920116;29;20060;-80
2023/01/20 13:23:35;;;;;;;5.65;4.70;;;-0.70;99.90;;;;;;4930393;29;20204;-79
2023/01/20 13:26:04;;;;;;;7.40;6.05;;;-0.70;99.90;;;;;;4927840;29;20063;-79
2023/01/20 13:28:33;;;;;;;5.13;4.63;;;-0.60;99.90;;;;;;4915559;29;20043;-80
2023/01/20 13:31:36;;;;;;;6.78;6.00;;;-0.60;99.90;;;;;;4892265;29;20052;-80
2023/01/20 13:34:23;;;;;;;4.18;3.78;;;-0.50;99.90;;;;;;4916479;29;20048;-80
2023/01/20 13:37:01;;;;;;;4.55;3.67;;;-0.60;99.90;;;;;;4913014;29;20052;-80
2023/01/20 13:39:28;;;;;;;5.22;4.80;;;-0.50;99.90;;;;;;4929600;29;20048;-80
2023/01/20 13:41:59;;;;;;;5.05;3.50;;;-0.60;99.90;;;;;;4920942;29;20269;-80